AirNav   Everest Fuels
 
 940 users online  

23ND Anderson Airport
Rogers, North Dakota, USA

GOING TO ROGERS?


FAA INFORMATION EFFECTIVE 25 MARCH 2021

Location

FAA Identifier: 23ND
Lat/Long: 47-04-17.2800N 098-13-25.9500W
47-04.288000N 098-13.432500W
47.0714667,-98.2238750
(estimated)
Elevation: 1424 ft. / 434 m (estimated)
From city: 1 mile W of ROGERS, ND
Time zone: UTC -5 (UTC -6 during Standard Time)
Zip code: 58479

Airport Operations

Airport use: Private use. Permission required prior to landing
Activation date: 07/2014
Control tower: no
ARTCC: MINNEAPOLIS CENTER
FSS: GRAND FORKS FLIGHT SERVICE STATION
Attendance: UNATNDD
Segmented circle: no

Airport Communications

WX AWOS-3 at BAC (11 nm SE): 118.725 (701-845-9117)

Nearby radio navigation aids

VOR radial/distance  VOR name  Freq  Var
JMSr062/20.4JAMESTOWN VOR/DME114.5004E

Airport Services

Runway Information

Runway 18/36

Dimensions: 2417 x 100 ft. / 737 x 30 m
Surface: turf
RUNWAY 18  RUNWAY 36
Traffic pattern: leftleft

Airport Ownership and Management from official FAA records

Ownership: Privately-owned
Owner: SHAWN ANDERSON
2323 108 AVE SE
ROGERS, ND 58479
Phone 701-840-2029
Manager: SHAWN ANDERSON
2323 108 AVE SE
ROGERS, ND 58479
Phone 701-840-2029

Airport Operational Statistics

Aircraft based on the field: 1
Single engine airplanes: 1
    

Additional Remarks

FOR CD CTC MINNEAPOLIS ARTCC AT 651-463-5588.

Instrument Procedures

There are no published instrument procedures at 23ND.

Some nearby airports with instrument procedures:

KBAC - Barnes County Municipal Airport (11 nm SE)
KJMS - Jamestown Regional Airport (20 nm SW)
S32 - Cooperstown Municipal Airport (22 nm N)
6L3 - Lisbon Municipal Airport (43 nm SE)
5N8 - Casselton Robert Miller Regional Airport (44 nm E)
 
Loc | Ops | Rwys | IFR | FBO | Links
Com | Nav | Svcs | Stats | Notes

Bismarck Aero Center
AirBoss

 
Aerial photo
No photo
 
Airport distance calculator
Flying to Anderson Airport? Find the distance to fly.

From to 23ND

Sunrise and sunset
Times for 11-Apr-2021
 Local
(UTC-5)
 Zulu
(UTC)
Morning civil twilight06:2211:22
Sunrise06:5311:53
Sunset20:1501:15
Evening civil twilight20:4601:46

Current date and time
Zulu (UTC)  12-Apr-2021 02:16:44
Local (UTC-5)  11-Apr-2021 21:16:44
 
METAR
KBAC 
11nm SE 
120155Z AUTO 30014KT 10SM -RA BKN039 OVC046 06/06 A2971 RMK AO2
KJMS 
20nm SW 
120156Z AUTO 30014KT 10SM -RA OVC013 05/03 A2972 RMK AO2 RAB07E23B29 SLP076 P0001 T00500028
KS32 
22nm N 
120155Z AUTO 25008KT 10SM BKN042 OVC050 09/04 A2970 RMK AO2 TSNO
TAF
KJMS 
20nm SW 
120007Z 1200/1224 31014G22KT P6SM -RA BKN020 OVC050 FM120100 31019G28KT P6SM -RA FEW009 BKN015 FM120300 30019G28KT 5SM -RA BR OVC009 FM121200 34021G31KT 3SM -RASN BR OVC009 FM121600 33020G30KT 2SM -SN BR OVC013
NOTAMs
Click for the latest NOTAMs
NOTAMs are issued by the DoD/FAA and will open in a separate window not controlled by AirNav.

 

 
 

Would you like to see your business listed on this page?

 If your business provides an interesting product or service to pilots, flight crews, aircraft, or users of the Anderson Airport, you should consider listing it here.  To start the listing process, click on the button below
 
Add a business
 

Other Pages about Anderson Airport

Update a link
 
Copyright © AirNav, LLC. All rights reserved. Privacy Policy  Contact